sensor_id;sensor_type;location;lat;lon;timestamp;P1;durP1;ratioP1;P2;durP2;ratioP2
33814;SDS011;20121;51.910;8.406;2023-04-06T00:01:06;3.28;;;1.35;;
33814;SDS011;20121;51.910;8.406;2023-04-06T00:03:35;2.00;;;1.50;;
33814;SDS011;20121;51.910;8.406;2023-04-06T00:06:01;2.28;;;2.00;;
33814;SDS011;20121;51.910;8.406;2023-04-06T00:08:27;2.50;;;1.90;;
33814;SDS011;20121;51.910;8.406;2023-04-06T00:10:53;1.55;;;1.38;;
33814;SDS011;20121;51.910;8.406;2023-04-06T00:13:19;2.22;;;2.03;;
33814;SDS011;20121;51.910;8.406;2023-04-06T00:15:45;2.30;;;2.10;;
33814;SDS011;20121;51.910;8.406;2023-04-06T00:18:11;2.07;;;1.97;;
33814;SDS011;20121;51.910;8.406;2023-04-06T00:20:36;2.17;;;1.47;;
33814;SDS011;20121;51.910;8.406;2023-04-06T00:23:02;5.13;;;3.43;;
33814;SDS011;20121;51.910;8.406;2023-04-06T00:25:28;1.40;;;1.20;;
33814;SDS011;20121;51.910;8.406;2023-04-06T00:27:54;2.33;;;1.97;;
33814;SDS011;20121;51.910;8.406;2023-04-06T00:30:19;1.77;;;1.53;;
33814;SDS011;20121;51.910;8.406;2023-04-06T00:32:45;1.47;;;1.20;;
33814;SDS011;20121;51.910;8.406;2023-04-06T00:35:11;2.20;;;1.60;;
33814;SDS011;20121;51.910;8.406;2023-04-06T00:37:36;3.47;;;1.97;;
33814;SDS011;20121;51.910;8.406;2023-04-06T00:40:02;3.23;;;2.07;;
33814;SDS011;20121;51.910;8.406;2023-04-06T00:42:28;1.75;;;1.50;;
33814;SDS011;20121;51.910;8.406;2023-04-06T00:44:55;3.77;;;1.90;;
33814;SDS011;20121;51.910;8.406;2023-04-06T00:47:22;2.50;;;2.20;;
33814;SDS011;20121;51.910;8.406;2023-04-06T00:49:50;1.30;;;1.25;;
33814;SDS011;20121;51.910;8.406;2023-04-06T00:52:16;1.73;;;1.20;;
33814;SDS011;20121;51.910;8.406;2023-04-06T00:54:42;1.42;;;1.33;;
33814;SDS011;20121;51.910;8.406;2023-04-06T00:57:08;3.43;;;1.67;;
33814;SDS011;20121;51.910;8.406;2023-04-06T00:59:33;3.40;;;1.83;;
33814;SDS011;20121;51.910;8.406;2023-04-06T01:01:59;7.20;;;4.70;;
33814;SDS011;20121;51.910;8.406;2023-04-06T01:04:26;4.45;;;1.80;;
33814;SDS011;20121;51.910;8.406;2023-04-06T01:06:52;4.50;;;2.08;;
33814;SDS011;20121;51.910;8.406;2023-04-06T01:09:17;8.63;;;2.80;;
33814;SDS011;20121;51.910;8.406;2023-04-06T01:11:43;2.33;;;1.77;;
33814;SDS011;20121;51.910;8.406;2023-04-06T01:14:09;1.67;;;1.57;;
33814;SDS011;20121;51.910;8.406;2023-04-06T01:16:35;1.13;;;1.02;;
33814;SDS011;20121;51.910;8.406;2023-04-06T01:19:06;1.20;;;1.00;;
33814;SDS011;20121;51.910;8.406;2023-04-06T01:21:34;2.25;;;1.77;;
33814;SDS011;20121;51.910;8.406;2023-04-06T01:24:01;2.88;;;2.13;;
33814;SDS011;20121;51.910;8.406;2023-04-06T01:26:26;2.30;;;1.90;;
33814;SDS011;20121;51.910;8.406;2023-04-06T01:28:54;1.15;;;0.95;;
33814;SDS011;20121;51.910;8.406;2023-04-06T01:31:20;2.47;;;1.70;;
33814;SDS011;20121;51.910;8.406;2023-04-06T01:33:46;1.80;;;1.52;;
33814;SDS011;20121;51.910;8.406;2023-04-06T01:36:12;2.17;;;1.97;;
33814;SDS011;20121;51.910;8.406;2023-04-06T01:38:37;2.00;;;0.93;;
33814;SDS011;20121;51.910;8.406;2023-04-06T01:41:03;3.80;;;3.43;;
33814;SDS011;20121;51.910;8.406;2023-04-06T01:43:29;2.17;;;1.95;;
33814;SDS011;20121;51.910;8.406;2023-04-06T01:45:55;9.93;;;2.63;;
33814;SDS011;20121;51.910;8.406;2023-04-06T01:48:21;1.83;;;1.73;;
33814;SDS011;20121;51.910;8.406;2023-04-06T01:50:46;2.03;;;1.93;;
33814;SDS011;20121;51.910;8.406;2023-04-06T01:53:12;4.80;;;2.30;;
33814;SDS011;20121;51.910;8.406;2023-04-06T01:55:38;1.30;;;1.20;;
33814;SDS011;20121;51.910;8.406;2023-04-06T01:58:03;1.93;;;1.83;;
33814;SDS011;20121;51.910;8.406;2023-04-06T02:00:29;2.90;;;1.23;;
33814;SDS011;20121;51.910;8.406;2023-04-06T02:02:55;1.57;;;1.10;;
33814;SDS011;20121;51.910;8.406;2023-04-06T02:05:20;3.27;;;1.37;;
33814;SDS011;20121;51.910;8.406;2023-04-06T02:07:46;4.73;;;1.93;;
33814;SDS011;20121;51.910;8.406;2023-04-06T02:10:12;1.20;;;1.10;;
33814;SDS011;20121;51.910;8.406;2023-04-06T02:12:39;1.52;;;1.42;;
33814;SDS011;20121;51.910;8.406;2023-04-06T02:15:05;2.00;;;1.60;;
33814;SDS011;20121;51.910;8.406;2023-04-06T02:17:31;1.25;;;1.13;;
33814;SDS011;20121;51.910;8.406;2023-04-06T02:19:56;1.30;;;1.20;;
33814;SDS011;20121;51.910;8.406;2023-04-06T02:22:22;1.17;;;1.07;;
33814;SDS011;20121;51.910;8.406;2023-04-06T02:24:47;1.70;;;1.60;;
33814;SDS011;20121;51.910;8.406;2023-04-06T02:27:14;2.17;;;1.67;;
33814;SDS011;20121;51.910;8.406;2023-04-06T02:29:40;1.40;;;1.30;;
33814;SDS011;20121;51.910;8.406;2023-04-06T02:32:06;6.20;;;2.40;;
33814;SDS011;20121;51.910;8.406;2023-04-06T02:34:31;4.40;;;2.70;;
33814;SDS011;20121;51.910;8.406;2023-04-06T02:36:57;2.72;;;2.53;;
33814;SDS011;20121;51.910;8.406;2023-04-06T02:39:23;1.63;;;1.17;;
33814;SDS011;20121;51.910;8.406;2023-04-06T02:41:49;2.17;;;2.00;;
33814;SDS011;20121;51.910;8.406;2023-04-06T02:44:15;2.50;;;1.90;;
33814;SDS011;20121;51.910;8.406;2023-04-06T02:46:40;1.47;;;1.20;;
33814;SDS011;20121;51.910;8.406;2023-04-06T02:49:06;2.10;;;1.90;;
33814;SDS011;20121;51.910;8.406;2023-04-06T02:51:32;2.23;;;2.13;;
33814;SDS011;20121;51.910;8.406;2023-04-06T02:53:58;2.80;;;2.10;;
33814;SDS011;20121;51.910;8.406;2023-04-06T02:56:24;1.57;;;1.47;;
33814;SDS011;20121;51.910;8.406;2023-04-06T02:58:50;1.83;;;1.33;;
33814;SDS011;20121;51.910;8.406;2023-04-06T03:01:15;1.73;;;1.63;;
33814;SDS011;20121;51.910;8.406;2023-04-06T03:03:41;6.00;;;2.70;;
33814;SDS011;20121;51.910;8.406;2023-04-06T03:06:07;2.20;;;2.00;;
33814;SDS011;20121;51.910;8.406;2023-04-06T03:08:32;2.27;;;2.07;;
33814;SDS011;20121;51.910;8.406;2023-04-06T03:10:58;3.03;;;1.50;;
33814;SDS011;20121;51.910;8.406;2023-04-06T03:13:24;2.20;;;1.03;;
33814;SDS011;20121;51.910;8.406;2023-04-06T03:15:50;4.83;;;1.47;;
33814;SDS011;20121;51.910;8.406;2023-04-06T03:18:17;3.00;;;2.77;;
33814;SDS011;20121;51.910;8.406;2023-04-06T03:20:46;2.85;;;1.60;;
33814;SDS011;20121;51.910;8.406;2023-04-06T03:23:12;4.40;;;2.90;;
33814;SDS011;20121;51.910;8.406;2023-04-06T03:25:38;8.77;;;2.33;;
33814;SDS011;20121;51.910;8.406;2023-04-06T03:28:04;4.75;;;1.63;;
33814;SDS011;20121;51.910;8.406;2023-04-06T03:30:30;1.77;;;1.53;;
33814;SDS011;20121;51.910;8.406;2023-04-06T03:32:56;2.43;;;2.33;;
33814;SDS011;20121;51.910;8.406;2023-04-06T03:35:22;1.55;;;1.45;;
33814;SDS011;20121;51.910;8.406;2023-04-06T03:37:47;2.70;;;2.50;;
33814;SDS011;20121;51.910;8.406;2023-04-06T03:40:13;1.30;;;1.02;;
33814;SDS011;20121;51.910;8.406;2023-04-06T03:42:39;2.70;;;2.00;;
33814;SDS011;20121;51.910;8.406;2023-04-06T03:45:05;2.13;;;1.90;;
33814;SDS011;20121;51.910;8.406;2023-04-06T03:47:31;1.80;;;1.52;;
33814;SDS011;20121;51.910;8.406;2023-04-06T03:49:56;2.20;;;1.93;;
33814;SDS011;20121;51.910;8.406;2023-04-06T03:52:22;2.10;;;1.77;;
33814;SDS011;20121;51.910;8.406;2023-04-06T03:54:48;1.83;;;1.20;;
33814;SDS011;20121;51.910;8.406;2023-04-06T03:57:14;2.47;;;2.28;;
33814;SDS011;20121;51.910;8.406;2023-04-06T03:59:40;1.90;;;1.80;;
33814;SDS011;20121;51.910;8.406;2023-04-06T04:02:06;4.03;;;1.63;;
33814;SDS011;20121;51.910;8.406;2023-04-06T04:04:31;3.00;;;1.67;;
33814;SDS011;20121;51.910;8.406;2023-04-06T04:06:57;1.13;;;1.03;;
33814;SDS011;20121;51.910;8.406;2023-04-06T04:09:23;3.33;;;2.23;;
33814;SDS011;20121;51.910;8.406;2023-04-06T04:11:48;2.37;;;1.43;;
33814;SDS011;20121;51.910;8.406;2023-04-06T04:14:14;3.73;;;1.73;;
33814;SDS011;20121;51.910;8.406;2023-04-06T04:16:39;1.50;;;1.40;;
33814;SDS011;20121;51.910;8.406;2023-04-06T04:19:06;2.08;;;1.90;;
33814;SDS011;20121;51.910;8.406;2023-04-06T04:21:32;2.90;;;2.20;;
33814;SDS011;20121;51.910;8.406;2023-04-06T04:23:58;6.20;;;2.13;;
33814;SDS011;20121;51.910;8.406;2023-04-06T04:26:23;2.60;;;2.40;;
33814;SDS011;20121;51.910;8.406;2023-04-06T04:28:49;2.30;;;1.50;;
33814;SDS011;20121;51.910;8.406;2023-04-06T04:31:15;1.23;;;1.13;;
33814;SDS011;20121;51.910;8.406;2023-04-06T04:33:43;4.10;;;1.65;;
33814;SDS011;20121;51.910;8.406;2023-04-06T04:36:09;1.97;;;1.87;;
33814;SDS011;20121;51.910;8.406;2023-04-06T04:38:35;2.33;;;1.48;;
33814;SDS011;20121;51.910;8.406;2023-04-06T04:41:01;4.27;;;1.80;;
33814;SDS011;20121;51.910;8.406;2023-04-06T04:43:26;1.87;;;1.70;;
33814;SDS011;20121;51.910;8.406;2023-04-06T04:45:52;1.77;;;1.30;;
33814;SDS011;20121;51.910;8.406;2023-04-06T04:48:18;1.90;;;1.80;;
33814;SDS011;20121;51.910;8.406;2023-04-06T04:50:44;2.88;;;2.45;;
33814;SDS011;20121;51.910;8.406;2023-04-06T04:53:09;4.13;;;1.87;;
33814;SDS011;20121;51.910;8.406;2023-04-06T04:55:35;2.30;;;2.03;;
33814;SDS011;20121;51.910;8.406;2023-04-06T04:58:01;1.40;;;1.10;;
33814;SDS011;20121;51.910;8.406;2023-04-06T05:00:27;1.15;;;0.85;;
33814;SDS011;20121;51.910;8.406;2023-04-06T05:02:53;4.23;;;2.13;;
33814;SDS011;20121;51.910;8.406;2023-04-06T05:05:19;1.63;;;1.53;;
33814;SDS011;20121;51.910;8.406;2023-04-06T05:07:44;5.95;;;1.55;;
33814;SDS011;20121;51.910;8.406;2023-04-06T05:10:10;1.40;;;1.30;;
33814;SDS011;20121;51.910;8.406;2023-04-06T05:12:36;2.00;;;1.63;;
33814;SDS011;20121;51.910;8.406;2023-04-06T05:15:02;2.33;;;2.17;;
33814;SDS011;20121;51.910;8.406;2023-04-06T05:17:29;3.83;;;2.05;;
33814;SDS011;20121;51.910;8.406;2023-04-06T05:19:54;1.87;;;1.77;;
33814;SDS011;20121;51.910;8.406;2023-04-06T05:22:20;4.97;;;1.40;;
33814;SDS011;20121;51.910;8.406;2023-04-06T05:24:46;2.63;;;1.60;;
33814;SDS011;20121;51.910;8.406;2023-04-06T05:27:11;3.83;;;1.70;;
33814;SDS011;20121;51.910;8.406;2023-04-06T05:29:37;6.20;;;2.87;;
33814;SDS011;20121;51.910;8.406;2023-04-06T05:32:03;2.00;;;1.80;;
33814;SDS011;20121;51.910;8.406;2023-04-06T05:34:29;1.52;;;1.42;;
33814;SDS011;20121;51.910;8.406;2023-04-06T05:36:55;1.60;;;1.50;;
33814;SDS011;20121;51.910;8.406;2023-04-06T05:39:20;1.50;;;1.40;;
33814;SDS011;20121;51.910;8.406;2023-04-06T05:41:46;6.90;;;1.70;;
33814;SDS011;20121;51.910;8.406;2023-04-06T05:44:13;2.95;;;2.40;;
33814;SDS011;20121;51.910;8.406;2023-04-06T05:46:38;3.17;;;2.37;;
33814;SDS011;20121;51.910;8.406;2023-04-06T05:49:04;1.65;;;1.55;;
33814;SDS011;20121;51.910;8.406;2023-04-06T05:51:30;2.00;;;1.90;;
33814;SDS011;20121;51.910;8.406;2023-04-06T05:53:56;3.40;;;2.60;;
33814;SDS011;20121;51.910;8.406;2023-04-06T05:56:22;2.10;;;2.00;;
33814;SDS011;20121;51.910;8.406;2023-04-06T05:58:48;2.50;;;2.30;;
33814;SDS011;20121;51.910;8.406;2023-04-06T06:01:14;3.23;;;2.37;;
33814;SDS011;20121;51.910;8.406;2023-04-06T06:03:40;1.65;;;1.50;;
33814;SDS011;20121;51.910;8.406;2023-04-06T06:06:06;3.50;;;3.20;;
33814;SDS011;20121;51.910;8.406;2023-04-06T06:08:32;8.50;;;2.00;;
33814;SDS011;20121;51.910;8.406;2023-04-06T06:10:57;2.83;;;2.63;;
33814;SDS011;20121;51.910;8.406;2023-04-06T06:13:23;2.57;;;2.00;;
33814;SDS011;20121;51.910;8.406;2023-04-06T06:15:49;5.90;;;2.67;;
33814;SDS011;20121;51.910;8.406;2023-04-06T06:18:15;3.25;;;2.22;;
33814;SDS011;20121;51.910;8.406;2023-04-06T06:20:41;2.65;;;2.45;;
33814;SDS011;20121;51.910;8.406;2023-04-06T06:23:07;2.83;;;2.60;;
33814;SDS011;20121;51.910;8.406;2023-04-06T06:25:33;1.58;;;1.48;;
33814;SDS011;20121;51.910;8.406;2023-04-06T06:27:58;3.83;;;1.53;;
33814;SDS011;20121;51.910;8.406;2023-04-06T06:30:24;1.70;;;1.30;;
33814;SDS011;20121;51.910;8.406;2023-04-06T06:32:51;3.83;;;2.47;;
33814;SDS011;20121;51.910;8.406;2023-04-06T06:35:16;4.57;;;2.47;;
33814;SDS011;20121;51.910;8.406;2023-04-06T06:37:42;2.83;;;2.60;;
33814;SDS011;20121;51.910;8.406;2023-04-06T06:40:09;3.30;;;3.00;;
33814;SDS011;20121;51.910;8.406;2023-04-06T06:42:35;5.05;;;3.58;;
33814;SDS011;20121;51.910;8.406;2023-04-06T06:45:01;2.63;;;2.10;;
33814;SDS011;20121;51.910;8.406;2023-04-06T06:47:27;1.13;;;1.07;;
33814;SDS011;20121;51.910;8.406;2023-04-06T06:49:53;5.70;;;4.20;;
33814;SDS011;20121;51.910;8.406;2023-04-06T06:52:18;1.87;;;1.50;;
33814;SDS011;20121;51.910;8.406;2023-04-06T06:54:44;4.00;;;2.17;;
33814;SDS011;20121;51.910;8.406;2023-04-06T06:57:10;5.90;;;2.50;;
33814;SDS011;20121;51.910;8.406;2023-04-06T06:59:35;2.80;;;1.43;;
33814;SDS011;20121;51.910;8.406;2023-04-06T07:02:01;3.70;;;3.40;;
33814;SDS011;20121;51.910;8.406;2023-04-06T07:04:27;1.63;;;1.53;;
33814;SDS011;20121;51.910;8.406;2023-04-06T07:06:52;3.40;;;1.70;;
33814;SDS011;20121;51.910;8.406;2023-04-06T07:09:18;3.40;;;3.10;;
33814;SDS011;20121;51.910;8.406;2023-04-06T07:11:44;3.08;;;2.53;;
33814;SDS011;20121;51.910;8.406;2023-04-06T07:14:10;2.83;;;1.80;;
33814;SDS011;20121;51.910;8.406;2023-04-06T07:16:36;1.92;;;1.42;;
33814;SDS011;20121;51.910;8.406;2023-04-06T07:19:02;4.05;;;1.92;;
33814;SDS011;20121;51.910;8.406;2023-04-06T07:21:28;2.03;;;1.83;;
33814;SDS011;20121;51.910;8.406;2023-04-06T07:23:54;6.73;;;2.47;;
33814;SDS011;20121;51.910;8.406;2023-04-06T07:26:19;2.40;;;1.63;;
33814;SDS011;20121;51.910;8.406;2023-04-06T07:28:45;3.05;;;1.70;;
33814;SDS011;20121;51.910;8.406;2023-04-06T07:31:11;2.70;;;2.10;;
33814;SDS011;20121;51.910;8.406;2023-04-06T07:33:37;2.10;;;1.73;;
33814;SDS011;20121;51.910;8.406;2023-04-06T07:36:03;10.60;;;3.80;;
33814;SDS011;20121;51.910;8.406;2023-04-06T07:38:28;5.07;;;4.40;;
33814;SDS011;20121;51.910;8.406;2023-04-06T07:40:54;1.80;;;1.70;;
33814;SDS011;20121;51.910;8.406;2023-04-06T07:43:20;2.90;;;1.97;;
33814;SDS011;20121;51.910;8.406;2023-04-06T07:45:46;4.20;;;2.07;;
33814;SDS011;20121;51.910;8.406;2023-04-06T07:48:11;1.80;;;1.43;;
33814;SDS011;20121;51.910;8.406;2023-04-06T07:50:37;1.80;;;1.30;;
33814;SDS011;20121;51.910;8.406;2023-04-06T07:53:03;2.87;;;2.63;;
33814;SDS011;20121;51.910;8.406;2023-04-06T07:55:28;6.47;;;4.23;;
33814;SDS011;20121;51.910;8.406;2023-04-06T07:57:54;2.67;;;2.33;;
33814;SDS011;20121;51.910;8.406;2023-04-06T08:00:20;2.53;;;2.13;;
33814;SDS011;20121;51.910;8.406;2023-04-06T08:02:46;3.78;;;2.45;;
33814;SDS011;20121;51.910;8.406;2023-04-06T08:05:11;5.13;;;2.90;;
33814;SDS011;20121;51.910;8.406;2023-04-06T08:07:37;2.40;;;2.20;;
33814;SDS011;20121;51.910;8.406;2023-04-06T08:10:03;4.87;;;2.73;;
33814;SDS011;20121;51.910;8.406;2023-04-06T08:12:29;4.22;;;2.40;;
33814;SDS011;20121;51.910;8.406;2023-04-06T08:14:55;4.10;;;2.10;;
33814;SDS011;20121;51.910;8.406;2023-04-06T08:17:21;3.75;;;2.40;;
33814;SDS011;20121;51.910;8.406;2023-04-06T08:19:47;4.70;;;2.27;;
33814;SDS011;20121;51.910;8.406;2023-04-06T08:22:13;7.03;;;1.93;;
33814;SDS011;20121;51.910;8.406;2023-04-06T08:24:39;4.03;;;2.60;;
33814;SDS011;20121;51.910;8.406;2023-04-06T08:27:05;2.40;;;2.20;;
33814;SDS011;20121;51.910;8.406;2023-04-06T08:29:31;4.50;;;2.28;;
33814;SDS011;20121;51.910;8.406;2023-04-06T08:31:57;8.43;;;2.90;;
33814;SDS011;20121;51.910;8.406;2023-04-06T08:34:22;6.23;;;3.70;;
33814;SDS011;20121;51.910;8.406;2023-04-06T08:36:49;2.88;;;1.52;;
33814;SDS011;20121;51.910;8.406;2023-04-06T08:39:15;2.00;;;1.90;;
33814;SDS011;20121;51.910;8.406;2023-04-06T08:41:43;4.00;;;3.00;;
33814;SDS011;20121;51.910;8.406;2023-04-06T08:44:09;3.42;;;1.92;;
33814;SDS011;20121;51.910;8.406;2023-04-06T08:49:15;4.90;;;2.50;;
33814;SDS011;20121;51.910;8.406;2023-04-06T08:51:41;5.68;;;2.65;;
33814;SDS011;20121;51.910;8.406;2023-04-06T08:54:07;2.42;;;2.17;;
33814;SDS011;20121;51.910;8.406;2023-04-06T08:56:36;4.60;;;3.45;;
33814;SDS011;20121;51.910;8.406;2023-04-06T08:59:03;4.40;;;3.80;;
33814;SDS011;20121;51.910;8.406;2023-04-06T09:01:29;2.28;;;2.08;;
33814;SDS011;20121;51.910;8.406;2023-04-06T09:03:58;4.28;;;2.90;;
33814;SDS011;20121;51.910;8.406;2023-04-06T09:06:25;5.18;;;3.47;;
33814;SDS011;20121;51.910;8.406;2023-04-06T09:08:52;2.75;;;2.47;;
33814;SDS011;20121;51.910;8.406;2023-04-06T09:11:19;3.60;;;2.95;;
33814;SDS011;20121;51.910;8.406;2023-04-06T09:16:11;6.73;;;2.73;;
33814;SDS011;20121;51.910;8.406;2023-04-06T09:18:37;3.73;;;3.00;;
33814;SDS011;20121;51.910;8.406;2023-04-06T09:21:03;4.53;;;2.87;;
33814;SDS011;20121;51.910;8.406;2023-04-06T09:23:30;5.82;;;2.90;;
33814;SDS011;20121;51.910;8.406;2023-04-06T09:26:06;3.42;;;3.05;;
33814;SDS011;20121;51.910;8.406;2023-04-06T09:31:15;6.70;;;2.65;;
33814;SDS011;20121;51.910;8.406;2023-04-06T09:33:46;5.07;;;3.60;;
33814;SDS011;20121;51.910;8.406;2023-04-06T09:36:12;2.80;;;2.70;;
33814;SDS011;20121;51.910;8.406;2023-04-06T09:38:50;3.80;;;3.35;;
33814;SDS011;20121;51.910;8.406;2023-04-06T09:41:27;14.35;;;2.97;;
33814;SDS011;20121;51.910;8.406;2023-04-06T09:44:07;4.35;;;2.65;;
33814;SDS011;20121;51.910;8.406;2023-04-06T09:46:40;5.90;;;2.80;;
33814;SDS011;20121;51.910;8.406;2023-04-06T09:49:07;8.27;;;3.65;;
33814;SDS011;20121;51.910;8.406;2023-04-06T09:51:38;3.30;;;2.85;;
33814;SDS011;20121;51.910;8.406;2023-04-06T09:54:06;3.97;;;3.05;;
33814;SDS011;20121;51.910;8.406;2023-04-06T09:59:18;2.60;;;2.40;;
33814;SDS011;20121;51.910;8.406;2023-04-06T10:01:58;8.43;;;4.43;;
33814;SDS011;20121;51.910;8.406;2023-04-06T10:07:13;13.95;;;3.55;;
33814;SDS011;20121;51.910;8.406;2023-04-06T10:09:40;5.68;;;3.63;;
33814;SDS011;20121;51.910;8.406;2023-04-06T10:12:10;5.78;;;3.65;;
33814;SDS011;20121;51.910;8.406;2023-04-06T10:14:37;5.43;;;3.63;;
33814;SDS011;20121;51.910;8.406;2023-04-06T10:17:04;4.00;;;3.38;;
33814;SDS011;20121;51.910;8.406;2023-04-06T10:19:33;6.03;;;3.10;;
33814;SDS011;20121;51.910;8.406;2023-04-06T10:22:29;5.30;;;3.30;;
33814;SDS011;20121;51.910;8.406;2023-04-06T10:25:05;4.28;;;3.42;;
33814;SDS011;20121;51.910;8.406;2023-04-06T10:27:32;5.78;;;3.45;;
33814;SDS011;20121;51.910;8.406;2023-04-06T10:30:02;4.40;;;3.27;;
33814;SDS011;20121;51.910;8.406;2023-04-06T10:35:09;8.70;;;3.65;;
33814;SDS011;20121;51.910;8.406;2023-04-06T10:37:45;7.72;;;5.00;;
33814;SDS011;20121;51.910;8.406;2023-04-06T10:40:24;5.18;;;4.43;;
33814;SDS011;20121;51.910;8.406;2023-04-06T10:42:54;5.10;;;3.33;;
33814;SDS011;20121;51.910;8.406;2023-04-06T10:45:26;4.53;;;3.08;;
33814;SDS011;20121;51.910;8.406;2023-04-06T10:47:56;6.55;;;3.30;;
33814;SDS011;20121;51.910;8.406;2023-04-06T10:50:22;8.55;;;4.10;;
33814;SDS011;20121;51.910;8.406;2023-04-06T10:53:01;7.00;;;4.28;;
33814;SDS011;20121;51.910;8.406;2023-04-06T10:55:28;5.90;;;4.28;;
33814;SDS011;20121;51.910;8.406;2023-04-06T10:57:54;5.57;;;3.42;;
33814;SDS011;20121;51.910;8.406;2023-04-06T11:00:20;12.97;;;6.57;;
33814;SDS011;20121;51.910;8.406;2023-04-06T11:02:46;9.50;;;4.60;;
33814;SDS011;20121;51.910;8.406;2023-04-06T11:05:12;6.45;;;3.97;;
33814;SDS011;20121;51.910;8.406;2023-04-06T11:07:39;5.20;;;3.80;;
33814;SDS011;20121;51.910;8.406;2023-04-06T11:10:05;5.82;;;4.10;;
33814;SDS011;20121;51.910;8.406;2023-04-06T11:12:31;4.88;;;3.58;;
33814;SDS011;20121;51.910;8.406;2023-04-06T11:15:01;7.27;;;3.80;;
33814;SDS011;20121;51.910;8.406;2023-04-06T11:17:34;6.70;;;4.40;;
33814;SDS011;20121;51.910;8.406;2023-04-06T11:20:01;4.85;;;3.80;;
33814;SDS011;20121;51.910;8.406;2023-04-06T11:22:28;6.65;;;4.28;;
33814;SDS011;20121;51.910;8.406;2023-04-06T11:25:04;7.80;;;4.50;;
33814;SDS011;20121;51.910;8.406;2023-04-06T11:27:31;7.40;;;3.85;;
33814;SDS011;20121;51.910;8.406;2023-04-06T11:29:59;5.97;;;3.95;;
33814;SDS011;20121;51.910;8.406;2023-04-06T11:32:25;5.30;;;3.40;;
33814;SDS011;20121;51.910;8.406;2023-04-06T11:34:51;5.87;;;3.50;;
33814;SDS011;20121;51.910;8.406;2023-04-06T11:37:17;3.90;;;3.07;;
33814;SDS011;20121;51.910;8.406;2023-04-06T11:42:08;5.53;;;3.13;;
33814;SDS011;20121;51.910;8.406;2023-04-06T11:47:05;5.22;;;3.70;;
33814;SDS011;20121;51.910;8.406;2023-04-06T11:49:32;2.97;;;2.67;;
33814;SDS011;20121;51.910;8.406;2023-04-06T11:52:01;4.63;;;2.92;;
33814;SDS011;20121;51.910;8.406;2023-04-06T11:56:55;8.25;;;4.25;;
33814;SDS011;20121;51.910;8.406;2023-04-06T11:59:21;5.13;;;3.40;;
33814;SDS011;20121;51.910;8.406;2023-04-06T12:01:48;8.70;;;3.97;;
33814;SDS011;20121;51.910;8.406;2023-04-06T12:04:13;6.87;;;3.10;;
33814;SDS011;20121;51.910;8.406;2023-04-06T12:06:39;8.63;;;3.73;;
33814;SDS011;20121;51.910;8.406;2023-04-06T12:09:05;2.80;;;2.53;;
33814;SDS011;20121;51.910;8.406;2023-04-06T12:11:31;3.60;;;2.97;;
33814;SDS011;20121;51.910;8.406;2023-04-06T12:13:56;4.07;;;3.10;;
33814;SDS011;20121;51.910;8.406;2023-04-06T12:16:24;5.38;;;3.22;;
33814;SDS011;20121;51.910;8.406;2023-04-06T12:18:50;4.40;;;2.63;;
33814;SDS011;20121;51.910;8.406;2023-04-06T12:21:16;6.15;;;3.38;;
33814;SDS011;20121;51.910;8.406;2023-04-06T12:23:42;3.87;;;3.17;;
33814;SDS011;20121;51.910;8.406;2023-04-06T12:26:07;4.70;;;2.90;;
33814;SDS011;20121;51.910;8.406;2023-04-06T12:28:33;6.87;;;4.00;;
33814;SDS011;20121;51.910;8.406;2023-04-06T12:30:59;3.17;;;2.40;;
33814;SDS011;20121;51.910;8.406;2023-04-06T12:33:25;4.68;;;3.80;;
33814;SDS011;20121;51.910;8.406;2023-04-06T12:35:50;4.77;;;2.70;;
33814;SDS011;20121;51.910;8.406;2023-04-06T12:38:16;5.10;;;3.17;;
33814;SDS011;20121;51.910;8.406;2023-04-06T12:40:42;5.60;;;3.73;;
33814;SDS011;20121;51.910;8.406;2023-04-06T12:43:08;5.83;;;3.60;;
33814;SDS011;20121;51.910;8.406;2023-04-06T12:45:34;6.47;;;3.40;;
33814;SDS011;20121;51.910;8.406;2023-04-06T12:47:59;5.80;;;2.63;;
33814;SDS011;20121;51.910;8.406;2023-04-06T12:50:26;4.82;;;2.58;;
33814;SDS011;20121;51.910;8.406;2023-04-06T12:52:51;6.60;;;4.50;;
33814;SDS011;20121;51.910;8.406;2023-04-06T12:55:17;4.70;;;3.53;;
33814;SDS011;20121;51.910;8.406;2023-04-06T12:57:42;7.40;;;4.33;;
33814;SDS011;20121;51.910;8.406;2023-04-06T13:00:10;4.88;;;3.45;;
33814;SDS011;20121;51.910;8.406;2023-04-06T13:02:36;7.25;;;3.88;;
33814;SDS011;20121;51.910;8.406;2023-04-06T13:05:02;3.90;;;3.07;;
33814;SDS011;20121;51.910;8.406;2023-04-06T13:07:27;4.33;;;3.20;;
33814;SDS011;20121;51.910;8.406;2023-04-06T13:09:53;4.80;;;3.47;;
33814;SDS011;20121;51.910;8.406;2023-04-06T13:12:19;2.67;;;2.20;;
33814;SDS011;20121;51.910;8.406;2023-04-06T13:14:45;6.25;;;2.65;;
33814;SDS011;20121;51.910;8.406;2023-04-06T13:17:15;6.70;;;3.10;;
33814;SDS011;20121;51.910;8.406;2023-04-06T13:19:42;7.55;;;3.72;;
33814;SDS011;20121;51.910;8.406;2023-04-06T13:22:08;8.53;;;3.57;;
33814;SDS011;20121;51.910;8.406;2023-04-06T13:24:33;8.73;;;4.13;;
33814;SDS011;20121;51.910;8.406;2023-04-06T13:26:59;6.30;;;3.03;;
33814;SDS011;20121;51.910;8.406;2023-04-06T13:29:25;4.07;;;2.97;;
33814;SDS011;20121;51.910;8.406;2023-04-06T13:31:52;5.20;;;3.38;;
33814;SDS011;20121;51.910;8.406;2023-04-06T13:34:18;4.20;;;3.57;;
33814;SDS011;20121;51.910;8.406;2023-04-06T13:36:43;11.80;;;4.50;;
33814;SDS011;20121;51.910;8.406;2023-04-06T13:39:09;3.37;;;3.07;;
33814;SDS011;20121;51.910;8.406;2023-04-06T13:41:34;8.63;;;4.03;;
33814;SDS011;20121;51.910;8.406;2023-04-06T13:44:00;3.93;;;3.17;;
33814;SDS011;20121;51.910;8.406;2023-04-06T13:46:26;5.60;;;3.90;;
33814;SDS011;20121;51.910;8.406;2023-04-06T13:48:52;6.83;;;4.50;;
33814;SDS011;20121;51.910;8.406;2023-04-06T13:51:18;6.47;;;3.97;;
33814;SDS011;20121;51.910;8.406;2023-04-06T13:53:44;4.67;;;4.20;;
33814;SDS011;20121;51.910;8.406;2023-04-06T13:56:10;8.18;;;4.80;;
33814;SDS011;20121;51.910;8.406;2023-04-06T13:58:35;5.53;;;3.80;;
33814;SDS011;20121;51.910;8.406;2023-04-06T14:01:04;7.63;;;4.17;;
33814;SDS011;20121;51.910;8.406;2023-04-06T14:03:32;5.82;;;3.80;;
33814;SDS011;20121;51.910;8.406;2023-04-06T14:05:58;6.85;;;4.53;;
33814;SDS011;20121;51.910;8.406;2023-04-06T14:08:23;10.10;;;3.90;;
33814;SDS011;20121;51.910;8.406;2023-04-06T14:10:49;10.93;;;5.03;;
33814;SDS011;20121;51.910;8.406;2023-04-06T14:13:15;4.47;;;2.80;;
33814;SDS011;20121;51.910;8.406;2023-04-06T14:15:42;7.00;;;4.70;;
33814;SDS011;20121;51.910;8.406;2023-04-06T14:18:08;5.87;;;3.87;;
33814;SDS011;20121;51.910;8.406;2023-04-06T14:20:33;6.93;;;4.63;;
33814;SDS011;20121;51.910;8.406;2023-04-06T14:23:00;5.60;;;3.27;;
33814;SDS011;20121;51.910;8.406;2023-04-06T14:25:26;8.88;;;3.75;;
33814;SDS011;20121;51.910;8.406;2023-04-06T14:27:52;7.23;;;3.77;;
33814;SDS011;20121;51.910;8.406;2023-04-06T14:30:18;7.60;;;4.13;;
33814;SDS011;20121;51.910;8.406;2023-04-06T14:32:43;9.47;;;3.90;;
33814;SDS011;20121;51.910;8.406;2023-04-06T14:35:09;7.60;;;4.90;;
33814;SDS011;20121;51.910;8.406;2023-04-06T14:37:35;8.75;;;4.60;;
33814;SDS011;20121;51.910;8.406;2023-04-06T14:40:01;7.73;;;3.90;;
33814;SDS011;20121;51.910;8.406;2023-04-06T14:42:28;6.45;;;3.42;;
33814;SDS011;20121;51.910;8.406;2023-04-06T14:44:53;6.17;;;3.67;;
33814;SDS011;20121;51.910;8.406;2023-04-06T14:47:19;30.93;;;8.53;;
33814;SDS011;20121;51.910;8.406;2023-04-06T14:49:46;6.50;;;3.72;;
33814;SDS011;20121;51.910;8.406;2023-04-06T14:52:13;5.85;;;4.10;;
33814;SDS011;20121;51.910;8.406;2023-04-06T14:54:39;5.60;;;3.00;;
33814;SDS011;20121;51.910;8.406;2023-04-06T14:57:05;4.97;;;3.50;;
33814;SDS011;20121;51.910;8.406;2023-04-06T14:59:30;5.70;;;3.77;;
33814;SDS011;20121;51.910;8.406;2023-04-06T15:01:57;11.50;;;4.82;;
33814;SDS011;20121;51.910;8.406;2023-04-06T15:04:24;5.00;;;3.88;;
33814;SDS011;20121;51.910;8.406;2023-04-06T15:06:50;4.70;;;3.27;;